Time;durP1;ratioP1;P1;durP2;ratioP2;P2;SDS_P1;SDS_P2;PMS_P1;PMS_P2;Temp;Humidity;BMP_temperature;BMP_pressure;BME280_temperature;BME280_humidity;BME280_pressure;Samples;Min_cycle;Max_cycle;Signal;HPM_P1;HPM_P2
2022/05/14 00:01:06;;;;;;;5.2;10.7;;;;;;;-133;65.6;65260;;;;
2022/05/14 00:22:06;;;;;;;4.8;8.6;;;;;;;-133;66.1;65250;;;;
2022/05/14 00:32:06;;;;;;;4.8;8.6;;;;;;;-133;66.7;65260;;;;
2022/05/14 00:43:06;;;;;;;4.8;8.6;;;;;;;-133;67.2;65250;;;;
2022/05/14 00:53:06;;;;;;;5;7.1;;;;;;;-133;68.2;65260;;;;
2022/05/14 01:04:06;;;;;;;5;7.1;;;;;;;-133;69.6;65250;;;;
2022/05/14 01:14:06;;;;;;;5;7.1;;;;;;;-133;70.5;65260;;;;
2022/05/14 01:36:06;;;;;;;5.9;9.8;;;;;;;-133;74.3;65260;;;;
2022/05/14 01:46:06;;;;;;;5.9;8.1;;;;;;;-133;77.2;65260;;;;
2022/05/14 01:57:06;;;;;;;5.9;8.1;;;;;;;-133;78.1;65260;;;;
2022/05/14 02:08:06;;;;;;;5.9;8.1;;;;;;;-133;80.8;65260;;;;
2022/05/14 02:19:06;;;;;;;7.5;11.3;;;;;;;-133;81.2;65260;;;;
2022/05/14 02:29:06;;;;;;;7.5;11.3;;;;;;;-133;83.8;65260;;;;
2022/05/14 02:40:06;;;;;;;7.5;11.3;;;;;;;-133;85.2;65260;;;;
2022/05/14 02:50:06;;;;;;;8.3;12.3;;;;;;;-133;87;65260;;;;
2022/05/14 03:00:06;;;;;;;8.3;12.3;;;;;;;-133;87.3;65260;;;;
2022/05/14 03:11:06;;;;;;;8.3;12.3;;;;;;;-133;88.3;65260;;;;
2022/05/14 03:22:06;;;;;;;9.1;13.6;;;;;;;-133;88.7;65260;;;;
2022/05/14 03:32:06;;;;;;;9.1;13.6;;;;;;;-133;88;65260;;;;
2022/05/14 03:43:06;;;;;;;9.1;13.6;;;;;;;-133;87.1;65260;;;;
2022/05/14 03:53:07;;;;;;;8.3;11.9;;;;;;;-133;86.4;65260;;;;
2022/05/14 04:04:06;;;;;;;8.3;11.9;;;;;;;-133;85.6;65260;;;;
2022/05/14 04:14:06;;;;;;;8.3;11.9;;;;;;;-133;84.4;65250;;;;
2022/05/14 04:25:06;;;;;;;8.3;13.4;;;;;;;-133;82.7;65260;;;;
2022/05/14 04:36:06;;;;;;;8.3;13.4;;;;;;;-133;80.4;65260;;;;
2022/05/14 04:46:06;;;;;;;8.4;16.7;;;;;;;-133;77.9;65260;;;;
2022/05/14 04:57:06;;;;;;;8.4;16.7;;;;;;;-133;76.1;65260;;;;
2022/05/14 05:07:06;;;;;;;8.4;16.7;;;;;;;-133;74.9;65250;;;;
2022/05/14 05:17:07;;;;;;;10.5;13.1;;;;;;;-133;72.1;65260;;;;
2022/05/14 05:28:06;;;;;;;10.5;13.1;;;;;;;-133;67.7;65260;;;;
2022/05/14 05:38:06;;;;;;;10.5;13.1;;;;;;;-133;66.3;65260;;;;
2022/05/14 05:49:07;;;;;;;8.9;15.9;;;;;;;-133;66.5;65250;;;;
2022/05/14 06:00:06;;;;;;;8.9;15.9;;;;;;;-133;63.5;65250;;;;
2022/05/14 06:10:06;;;;;;;8.9;15.9;;;;;;;-133;61.8;65250;;;;
2022/05/14 06:21:06;;;;;;;6.7;12.9;;;;;;;-133;61.6;65250;;;;
2022/05/14 06:31:06;;;;;;;6.7;12.9;;;;;;;-133;59.6;65250;;;;
2022/05/14 06:42:06;;;;;;;6.7;12.9;;;;;;;-133;58.5;65240;;;;
2022/05/14 06:53:06;;;;;;;7;11.9;;;;;;;-133;55.1;65240;;;;
2022/05/14 07:14:06;;;;;;;7;11.9;;;;;;;-133;54.6;65240;;;;
2022/05/14 07:25:06;;;;;;;5.5;10.2;;;;;;;-133;53.6;65240;;;;
2022/05/14 07:36:06;;;;;;;5.5;10.2;;;;;;;-133;53.1;65240;;;;
2022/05/14 07:46:06;;;;;;;4.4;9.1;;;;;;;-133;53.4;65240;;;;
2022/05/14 07:57:07;;;;;;;4.4;9.1;;;;;;;-133;54.8;65240;;;;
2022/05/14 08:08:06;;;;;;;4.4;9.1;;;;;;;-133;54.4;65240;;;;
2022/05/14 08:18:06;;;;;;;4;9.2;;;;;;;-133;53.7;65240;;;;
2022/05/14 08:28:06;;;;;;;4;9.2;;;;;;;-133;53.8;65240;;;;
2022/05/14 08:39:06;;;;;;;4;9.2;;;;;;;-133;51.9;65230;;;;
2022/05/14 08:49:06;;;;;;;3.9;6.9;;;;;;;-133;49.5;65230;;;;
2022/05/14 09:00:06;;;;;;;3.9;6.9;;;;;;;-133;48.4;65230;;;;
2022/05/14 09:10:06;;;;;;;3.9;6.9;;;;;;;-133;47.9;65230;;;;
2022/05/14 09:20:06;;;;;;;3.7;7;;;;;;;-133;45.4;65230;;;;
2022/05/14 09:31:06;;;;;;;3.7;7;;;;;;;-133;47;65230;;;;
2022/05/14 09:41:06;;;;;;;3.7;7;;;;;;;-133;46.8;65230;;;;
2022/05/14 09:51:06;;;;;;;3.3;8.9;;;;;;;-133;49.4;65230;;;;
2022/05/14 10:01:06;;;;;;;3.3;8.9;;;;;;;-133;46.2;65230;;;;
2022/05/14 10:12:06;;;;;;;3.3;8.9;;;;;;;-133;45.7;65230;;;;
2022/05/14 10:33:06;;;;;;;4.3;15.8;;;;;;;-133;44.4;65230;;;;
2022/05/14 10:44:06;;;;;;;4.3;15.8;;;;;;;-133;43.6;65230;;;;
2022/05/14 10:54:06;;;;;;;3.4;8.1;;;;;;;-133;43.2;65230;;;;
2022/05/14 11:05:06;;;;;;;3.4;8.1;;;;;;;-133;42.4;65230;;;;
2022/05/14 11:15:06;;;;;;;3.4;8.1;;;;;;;-133;43.6;65230;;;;
2022/05/14 11:25:06;;;;;;;2.8;6.5;;;;;;;-133;43.1;65230;;;;
2022/05/14 11:35:06;;;;;;;2.8;6.5;;;;;;;-133;42.4;65230;;;;
2022/05/14 11:45:06;;;;;;;2.8;6.5;;;;;;;-133;40.8;65230;;;;
2022/05/14 11:55:06;;;;;;;2.6;6.7;;;;;;;-133;41.3;65230;;;;
2022/05/14 12:06:06;;;;;;;2.6;6.7;;;;;;;-133;39;65230;;;;
2022/05/14 12:16:06;;;;;;;2.7;9.9;;;;;;;-133;39.1;65230;;;;
2022/05/14 12:26:06;;;;;;;2.7;9.9;;;;;;;-133;39;65230;;;;
2022/05/14 12:37:06;;;;;;;2.7;9.9;;;;;;;-133;38.1;65230;;;;
2022/05/14 12:47:06;;;;;;;2.2;6.4;;;;;;;-133;38.8;65230;;;;
2022/05/14 12:58:06;;;;;;;2.2;6.4;;;;;;;-133;38.4;65230;;;;
2022/05/14 13:08:06;;;;;;;2.2;6.4;;;;;;;-133;38.5;65230;;;;
2022/05/14 13:18:06;;;;;;;2;7.6;;;;;;;-133;38.7;65230;;;;
2022/05/14 13:28:06;;;;;;;2;7.6;;;;;;;-133;37.9;65230;;;;
2022/05/14 13:39:06;;;;;;;2;7.6;;;;;;;-133;37.3;65230;;;;
2022/05/14 13:49:06;;;;;;;2.9;6.8;;;;;;;-133;37.6;65230;;;;
2022/05/14 14:00:06;;;;;;;2.9;6.8;;;;;;;-133;36.6;65230;;;;
2022/05/14 14:10:06;;;;;;;2.9;6.8;;;;;;;-133;37.2;65230;;;;
2022/05/14 14:20:06;;;;;;;2.7;6.9;;;;;;;-133;37.1;65230;;;;
2022/05/14 14:30:06;;;;;;;2.7;6.9;;;;;;;-133;36.7;65230;;;;
2022/05/14 14:41:06;;;;;;;2.7;6.9;;;;;;;-133;35.4;65230;;;;
2022/05/14 14:51:07;;;;;;;3;9;;;;;;;-133;36;65230;;;;
2022/05/14 15:01:06;;;;;;;3;9;;;;;;;-133;35.3;65230;;;;
2022/05/14 15:11:06;;;;;;;3;9;;;;;;;-133;30.9;65230;;;;
2022/05/14 15:22:06;;;;;;;2.8;7.2;;;;;;;-133;29.1;65230;;;;
2022/05/14 15:33:08;;;;;;;2.8;7.2;;;;;;;-133;29.9;65230;;;;
2022/05/14 15:43:06;;;;;;;2.8;7.2;;;;;;;-133;28.9;65230;;;;
2022/05/14 15:54:06;;;;;;;2.9;6.3;;;;;;;-133;29.3;65230;;;;
2022/05/14 16:04:06;;;;;;;2.9;6.3;;;;;;;-133;30.4;65230;;;;
2022/05/14 16:16:10;;;;;;;2.9;6.3;;;;;;;-133;33.7;65230;;;;
2022/05/14 16:25:06;;;;;;;3;6.5;;;;;;;-133;33.6;65230;;;;
2022/05/14 16:36:06;;;;;;;3;6.5;;;;;;;-133;33.5;65230;;;;
2022/05/14 16:46:06;;;;;;;3.1;9.5;;;;;;;-133;32;65230;;;;
2022/05/14 16:56:06;;;;;;;3.1;9.5;;;;;;;-133;32.9;65240;;;;
2022/05/14 17:07:06;;;;;;;3.1;9.5;;;;;;;-133;36.5;65240;;;;
2022/05/14 17:18:06;;;;;;;4.2;8.3;;;;;;;-133;39.3;65240;;;;
2022/05/14 17:28:06;;;;;;;4.2;8.3;;;;;;;-133;41.9;65240;;;;
2022/05/14 17:40:11;;;;;;;4.2;8.3;;;;;;;-133;42.3;65240;;;;
2022/05/14 17:50:06;;;;;;;4.9;10.6;;;;;;;-133;43.4;65240;;;;
2022/05/14 18:01:06;;;;;;;4.9;10.6;;;;;;;-133;45.2;65240;;;;
2022/05/14 18:12:10;;;;;;;4.9;10.6;;;;;;;-133;48.6;65250;;;;
2022/05/14 18:22:06;;;;;;;6.6;15;;;;;;;-133;51.3;65250;;;;
2022/05/14 18:32:06;;;;;;;6.6;15;;;;;;;-133;52.9;65250;;;;
2022/05/14 18:43:07;;;;;;;6.6;15;;;;;;;-133;54.5;65250;;;;
2022/05/14 18:53:07;;;;;;;8.2;11.4;;;;;;;-133;59;65250;;;;
2022/05/14 19:14:06;;;;;;;8.2;11.4;;;;;;;-133;60.8;65250;;;;
2022/05/14 19:25:06;;;;;;;7.5;13.9;;;;;;;-133;63;65250;;;;
2022/05/14 19:35:06;;;;;;;7.5;13.9;;;;;;;-133;63.3;65250;;;;
2022/05/14 19:45:06;;;;;;;7.5;13.9;;;;;;;-133;63.2;65250;;;;
2022/05/14 19:56:06;;;;;;;9.2;13.4;;;;;;;-133;63.9;65250;;;;
2022/05/14 20:07:06;;;;;;;9.2;13.4;;;;;;;-133;64.5;65250;;;;
2022/05/14 20:27:06;;;;;;;7.2;13.9;;;;;;;-133;66.4;65250;;;;
2022/05/14 20:37:06;;;;;;;7.2;13.9;;;;;;;-133;66.5;65250;;;;
2022/05/14 20:48:06;;;;;;;8.4;13.3;;;;;;;-133;67.3;65250;;;;
2022/05/14 20:58:06;;;;;;;8.4;13.3;;;;;;;-133;69.4;65260;;;;
2022/05/14 21:08:07;;;;;;;8.4;13.3;;;;;;;-133;70;65250;;;;
2022/05/14 21:18:06;;;;;;;8.4;11.3;;;;;;;-133;69.6;65250;;;;
2022/05/14 21:28:06;;;;;;;8.4;11.3;;;;;;;-133;70.7;65260;;;;
2022/05/14 21:39:06;;;;;;;8.4;11.3;;;;;;;-133;73.1;65250;;;;
2022/05/14 21:49:06;;;;;;;8.5;10.8;;;;;;;-133;73.6;65250;;;;
2022/05/14 21:59:06;;;;;;;8.5;10.8;;;;;;;-133;74;65250;;;;
2022/05/14 22:10:07;;;;;;;8.5;10.8;;;;;;;-133;74.6;65260;;;;
2022/05/14 22:20:06;;;;;;;8.7;12.5;;;;;;;-133;75.1;65250;;;;
2022/05/14 22:30:06;;;;;;;8.7;12.5;;;;;;;-133;77.5;65250;;;;
2022/05/14 22:41:06;;;;;;;8.7;12.5;;;;;;;-133;77.2;65250;;;;
2022/05/14 22:52:06;;;;;;;9.9;13;;;;;;;-133;77.8;65260;;;;
2022/05/14 23:03:06;;;;;;;9.9;13;;;;;;;-133;78.7;65260;;;;
2022/05/14 23:13:06;;;;;;;9.9;13;;;;;;;-133;79.4;65260;;;;
2022/05/14 23:23:06;;;;;;;10.2;13;;;;;;;-133;82.7;65250;;;;
2022/05/14 23:34:06;;;;;;;10.2;13;;;;;;;-133;84.8;65260;;;;
2022/05/14 23:44:07;;;;;;;10.2;13;;;;;;;-133;83.2;65260;;;;
2022/05/14 23:55:06;;;;;;;11.8;17.7;;;;;;;-133;87.1;65250;;;;
